createdAt,value
2022-10-30T09:02:14.860Z,5.90
2022-10-30T09:05:33.157Z,6.30
2022-10-30T09:09:05.443Z,6.80
2022-10-30T09:12:12.780Z,6.60
2022-10-30T09:15:11.520Z,7.20
2022-10-30T09:18:18.568Z,6.40
2022-10-30T09:21:13.998Z,5.88
2022-10-30T09:24:13.297Z,6.30
2022-10-30T09:27:08.321Z,6.22
2022-10-30T09:30:13.196Z,5.70
2022-10-30T09:33:12.377Z,6.50
2022-10-30T09:36:27.219Z,6.80
2022-10-30T09:39:23.187Z,7.50
2022-10-30T09:42:40.046Z,6.43
2022-10-30T09:45:59.550Z,6.33
2022-10-30T09:49:15.125Z,4.40
2022-10-30T09:52:59.035Z,5.53
2022-10-30T09:56:28.684Z,5.10
2022-10-30T09:59:41.046Z,4.90
2022-10-30T10:03:02.804Z,5.97
2022-10-30T10:06:18.818Z,7.70
2022-10-30T10:09:54.592Z,4.97
2022-10-30T10:14:45.687Z,4.73
2022-10-30T10:17:45.384Z,4.50
2022-10-30T10:21:27.713Z,4.73
2022-10-30T10:24:34.879Z,5.45
2022-10-30T10:28:01.923Z,4.57
2022-10-30T10:31:02.236Z,5.57
2022-10-30T10:34:02.871Z,6.07
2022-10-30T10:37:43.166Z,6.40
2022-10-30T10:41:03.574Z,7.20
2022-10-30T10:44:24.199Z,6.00
2022-10-30T10:48:06.121Z,5.53
2022-10-30T10:51:23.439Z,5.30
2022-10-30T10:54:27.339Z,6.20
2022-10-30T10:57:30.054Z,5.47
2022-10-30T11:00:31.429Z,4.67
2022-10-30T11:04:13.053Z,6.83
2022-10-30T11:07:32.682Z,5.53
2022-10-30T11:10:27.724Z,5.40
2022-10-30T11:13:30.845Z,5.55
2022-10-30T11:17:05.972Z,4.00
2022-10-30T11:20:03.436Z,3.87
2022-10-30T11:23:30.334Z,3.83
2022-10-30T11:26:29.939Z,4.83
2022-10-30T11:29:31.592Z,4.77
2022-10-30T11:32:33.384Z,4.50
2022-10-30T11:35:30.316Z,5.10
2022-10-30T11:38:26.813Z,4.67
2022-10-30T11:41:22.144Z,4.60
2022-10-30T11:44:17.597Z,4.20
2022-10-30T11:47:16.015Z,4.03
2022-10-30T11:50:46.238Z,4.20
2022-10-30T11:53:48.062Z,4.20
2022-10-30T11:56:46.538Z,3.70
2022-10-30T11:59:48.160Z,3.93
2022-10-30T12:03:26.590Z,4.03
2022-10-30T12:06:34.803Z,3.47
2022-10-30T12:09:31.125Z,3.30
2022-10-30T12:12:27.905Z,3.73
2022-10-30T12:15:26.406Z,5.83
2022-10-30T12:18:24.636Z,4.07
2022-10-30T12:21:21.091Z,3.53
2022-10-30T12:24:21.807Z,3.77
2022-10-30T12:27:21.430Z,4.67
2022-10-30T12:30:37.717Z,5.73
2022-10-30T12:34:19.646Z,6.23
2022-10-30T12:37:29.879Z,4.43
2022-10-30T12:40:58.922Z,6.87
2022-10-30T12:43:47.175Z,4.70
2022-10-30T12:46:22.840Z,4.20
2022-10-30T12:49:31.211Z,4.47
2022-10-30T12:52:49.224Z,4.80
2022-10-30T12:55:59.263Z,4.57
2022-10-30T12:59:31.033Z,4.40
2022-10-30T13:02:13.400Z,3.53
2022-10-30T13:04:36.100Z,3.50
2022-10-30T13:07:15.784Z,3.50
2022-10-30T13:09:44.514Z,2.90
2022-10-30T13:12:13.098Z,4.13
2022-10-30T13:14:30.805Z,3.50
2022-10-30T13:16:33.508Z,3.00
2022-10-30T13:18:37.640Z,3.20
2022-10-30T13:21:27.243Z,4.03
2022-10-30T13:23:51.378Z,3.60
2022-10-30T13:26:04.759Z,4.27
2022-10-30T13:28:35.223Z,4.50
2022-10-30T13:30:46.452Z,3.43
2022-10-30T13:32:58.185Z,4.00
2022-10-30T13:35:43.896Z,3.55
2022-10-30T13:37:57.180Z,3.97
2022-10-30T13:41:16.831Z,3.00
2022-10-30T13:44:18.901Z,2.50
2022-10-30T13:47:25.037Z,3.00
2022-10-30T13:50:52.605Z,5.30
2022-10-30T13:53:56.090Z,3.28
2022-10-30T13:56:47.528Z,3.90
2022-10-30T13:59:39.852Z,2.70
2022-10-30T14:02:23.413Z,2.57
2022-10-30T14:05:15.573Z,4.00
2022-10-30T14:08:08.959Z,2.90
2022-10-30T14:11:17.368Z,3.20
2022-10-30T14:14:30.233Z,2.50
2022-10-30T14:17:19.500Z,2.90
2022-10-30T14:20:21.470Z,3.33
2022-10-30T14:23:08.983Z,2.50
2022-10-30T14:26:02.523Z,2.27
2022-10-30T14:28:45.375Z,2.77
2022-10-30T14:31:34.791Z,1.87
2022-10-30T14:35:03.551Z,2.30
2022-10-30T14:38:06.729Z,1.53
2022-10-30T14:41:02.856Z,2.10
2022-10-30T14:44:04.966Z,1.80
2022-10-30T14:47:18.866Z,1.70
2022-10-30T14:50:10.995Z,1.47
2022-10-30T14:53:14.145Z,1.97
2022-10-30T14:56:11.861Z,2.00
2022-10-30T14:58:28.074Z,1.83
2022-10-30T15:00:33.291Z,1.50
2022-10-30T15:02:58.463Z,1.60
2022-10-30T15:05:41.626Z,1.70
2022-10-30T15:07:57.814Z,1.90
2022-10-30T15:10:51.610Z,2.63
2022-10-30T15:13:20.256Z,2.40
2022-10-30T15:15:22.889Z,2.20
2022-10-30T15:17:31.303Z,2.20
2022-10-30T15:19:35.543Z,2.20
2022-10-30T15:21:45.263Z,2.27
2022-10-30T15:23:47.831Z,2.10
2022-10-30T15:25:53.926Z,2.97
2022-10-30T15:27:58.420Z,2.90
2022-10-30T15:30:04.480Z,2.70
2022-10-30T15:32:21.387Z,2.30
2022-10-30T15:34:24.970Z,2.27
2022-10-30T15:36:35.918Z,2.10
2022-10-30T15:38:38.443Z,2.40
2022-10-30T15:40:41.365Z,2.80
2022-10-30T15:42:45.371Z,2.30
2022-10-30T15:44:47.944Z,2.70
2022-10-30T15:46:54.496Z,2.45
2022-10-30T15:48:57.136Z,1.97
2022-10-30T15:51:01.481Z,2.87
2022-10-30T15:53:04.451Z,2.60
2022-10-30T15:55:10.725Z,1.80
2022-10-30T15:57:49.839Z,2.23
2022-10-30T15:59:57.320Z,2.13
2022-10-30T16:02:01.752Z,2.60
2022-10-30T16:04:20.493Z,2.40
2022-10-30T16:06:32.125Z,2.57
2022-10-30T16:08:45.764Z,2.25
2022-10-30T16:10:51.842Z,2.53
2022-10-30T16:12:59.140Z,1.92
2022-10-30T16:15:08.461Z,2.27
2022-10-30T16:17:12.287Z,2.17
2022-10-30T16:19:29.416Z,2.50
2022-10-30T16:21:33.984Z,2.00
2022-10-30T16:23:55.248Z,2.10
2022-10-30T16:26:02.397Z,2.07
2022-10-30T16:28:08.180Z,2.10
2022-10-30T16:30:14.422Z,2.73
2022-10-30T16:32:48.477Z,2.43
2022-10-30T16:34:57.593Z,2.83
2022-10-30T16:37:01.775Z,2.90
2022-10-30T16:39:16.845Z,3.30
2022-10-30T16:41:25.765Z,3.73
2022-10-30T16:43:32.554Z,2.80
2022-10-30T16:45:35.044Z,4.00
2022-10-30T16:47:45.971Z,3.37
2022-10-30T16:49:56.587Z,4.70
2022-10-30T16:52:07.382Z,4.83
2022-10-30T16:54:24.986Z,5.63
2022-10-30T16:56:30.333Z,5.70
2022-10-30T16:58:32.928Z,5.50
2022-10-30T17:00:36.739Z,4.30
2022-10-30T17:02:47.228Z,5.10
2022-10-30T17:05:04.274Z,4.87
2022-10-30T17:07:21.871Z,5.53
2022-10-30T17:09:28.741Z,6.13
2022-10-30T17:11:42.155Z,5.87
2022-10-30T17:14:00.163Z,5.40
2022-10-30T17:16:25.327Z,6.00
2022-10-30T17:18:33.338Z,6.70
2022-10-30T17:20:36.023Z,5.90
2022-10-30T17:22:39.483Z,7.00
2022-10-30T17:24:42.380Z,6.43
2022-10-30T17:27:02.096Z,7.50
2022-10-30T17:29:04.866Z,8.03
2022-10-30T17:31:27.463Z,7.77
2022-10-30T17:33:47.023Z,8.30
2022-10-30T17:35:51.930Z,6.80
2022-10-30T17:37:58.398Z,7.23
2022-10-30T17:40:04.976Z,7.30
2022-10-30T17:42:09.828Z,7.25
2022-10-30T17:44:20.524Z,5.80
2022-10-30T17:46:24.516Z,6.57
2022-10-30T17:48:29.416Z,5.32
2022-10-30T17:50:32.033Z,5.60
2022-10-30T17:52:35.070Z,5.40
2022-10-30T17:54:37.940Z,5.13
2022-10-30T17:56:41.449Z,4.67
2022-10-30T17:58:43.983Z,4.47
2022-10-30T18:00:46.967Z,4.30
2022-10-30T18:02:49.580Z,5.00
2022-10-30T18:04:54.933Z,4.50
2022-10-30T18:06:57.532Z,4.47
2022-10-30T18:09:00.093Z,3.80
2022-10-30T18:11:02.661Z,4.40
2022-10-30T18:13:05.245Z,3.63
2022-10-30T18:15:39.323Z,3.95
2022-10-30T18:17:41.899Z,3.70
2022-10-30T18:19:44.497Z,3.90
2022-10-30T18:21:48.521Z,4.10
2022-10-30T18:23:52.741Z,4.27
2022-10-30T18:25:56.544Z,4.05
2022-10-30T18:27:59.108Z,4.03
2022-10-30T18:30:01.890Z,4.20
2022-10-30T18:32:09.439Z,5.50
2022-10-30T18:34:19.598Z,5.07
2022-10-30T18:36:24.729Z,5.13
2022-10-30T18:38:27.451Z,4.70
2022-10-30T18:40:33.092Z,5.07
2022-10-30T18:42:35.812Z,5.30
2022-10-30T18:44:38.683Z,5.33
2022-10-30T18:46:41.328Z,6.43
2022-10-30T18:48:45.417Z,6.93
2022-10-30T18:51:29.684Z,6.00
2022-10-30T18:53:35.196Z,5.75
2022-10-30T18:55:40.471Z,5.73
2022-10-30T18:57:43.069Z,7.83
2022-10-30T18:59:45.599Z,8.40
2022-10-30T19:01:48.170Z,7.50
2022-10-30T19:03:51.048Z,7.72
2022-10-30T19:05:53.636Z,7.63
2022-10-30T19:07:58.361Z,7.83
2022-10-30T19:10:01.789Z,8.90
2022-10-30T19:12:04.743Z,7.93
2022-10-30T19:14:13.567Z,8.20
2022-10-30T19:16:24.561Z,7.80
2022-10-30T19:18:28.491Z,9.02
2022-10-30T19:20:58.445Z,9.47
2022-10-30T19:22:55.911Z,9.77
2022-10-30T19:25:27.501Z,7.87
2022-10-30T19:27:30.209Z,9.30
2022-10-30T19:29:32.833Z,8.27
2022-10-30T19:31:35.536Z,8.23
2022-10-30T19:33:38.052Z,8.40
2022-10-30T19:35:55.108Z,9.27
2022-10-30T19:37:58.136Z,8.70
2022-10-30T19:40:19.376Z,7.47
2022-10-30T19:42:22.282Z,8.10
2022-10-30T19:44:24.843Z,7.77
2022-10-30T19:46:27.385Z,9.53
2022-10-30T19:48:55.988Z,9.87
2022-10-30T19:50:52.613Z,9.40
2022-10-30T19:52:58.907Z,7.87
2022-10-30T19:55:01.651Z,9.03
2022-10-30T19:57:05.801Z,8.60
2022-10-30T19:59:11.601Z,8.67
2022-10-30T20:01:14.671Z,8.87
2022-10-30T20:03:18.917Z,9.53
2022-10-30T20:05:25.135Z,8.50
2022-10-30T20:07:27.612Z,8.77
2022-10-30T20:09:31.222Z,7.63
2022-10-30T20:11:33.797Z,7.70
2022-10-30T20:13:37.289Z,8.43
2022-10-30T20:15:40.096Z,8.10
2022-10-30T20:17:42.711Z,8.60
2022-10-30T20:19:46.059Z,7.43
2022-10-30T20:21:48.653Z,8.47
2022-10-30T20:23:51.249Z,8.90
2022-10-30T20:26:01.701Z,8.27
2022-10-30T20:28:18.673Z,8.00
2022-10-30T20:30:23.070Z,8.43
2022-10-30T20:32:25.611Z,8.57
2022-10-30T20:34:28.135Z,7.07
2022-10-30T20:36:30.946Z,6.73
2022-10-30T20:38:34.321Z,6.83
2022-10-30T20:40:36.889Z,6.30
2022-10-30T20:42:43.610Z,6.03
2022-10-30T20:44:46.872Z,6.13
2022-10-30T20:46:49.395Z,6.00
2022-10-30T20:48:51.999Z,5.60
2022-10-30T20:50:55.780Z,7.00
2022-10-30T20:52:58.376Z,7.70
2022-10-30T20:55:00.982Z,7.97
2022-10-30T20:57:03.580Z,9.00
2022-10-30T20:59:07.228Z,9.03
2022-10-30T21:01:10.876Z,9.90
2022-10-30T21:03:16.481Z,8.50
2022-10-30T21:05:42.135Z,7.93
2022-10-30T21:07:41.722Z,8.07
2022-10-30T21:09:44.274Z,7.90
2022-10-30T21:11:46.808Z,7.93
2022-10-30T21:13:49.364Z,7.33
2022-10-30T21:15:51.922Z,10.20
2022-10-30T21:17:54.459Z,15.60
2022-10-30T21:19:58.352Z,14.40
2022-10-30T21:22:01.191Z,12.23
2022-10-30T21:24:04.595Z,11.93
2022-10-30T21:26:10.982Z,11.10
2022-10-30T21:28:14.010Z,10.13
2022-10-30T21:30:16.622Z,10.23
2022-10-30T21:32:19.181Z,9.50
2022-10-30T21:34:21.795Z,9.10
2022-10-30T21:36:25.632Z,9.47
2022-10-30T21:38:28.188Z,8.77
2022-10-30T21:40:30.726Z,8.37
2022-10-30T21:42:33.633Z,9.47
2022-10-30T21:44:36.127Z,10.50
2022-10-30T21:46:38.712Z,10.47
2022-10-30T21:48:41.265Z,9.97
2022-10-30T21:50:43.930Z,9.63
2022-10-30T21:52:46.457Z,9.60
2022-10-30T21:54:49.001Z,9.50
2022-10-30T21:56:51.646Z,9.93
2022-10-30T21:59:04.822Z,9.55
2022-10-30T22:01:16.295Z,8.57
2022-10-30T22:03:18.909Z,8.50
2022-10-30T22:05:21.972Z,9.17
2022-10-30T22:07:25.057Z,7.97
2022-10-30T22:09:27.580Z,8.50
2022-10-30T22:11:30.208Z,7.40
2022-10-30T22:13:33.196Z,8.30
2022-10-30T22:15:36.805Z,8.50
2022-10-30T22:17:41.794Z,8.13
2022-10-30T22:19:46.911Z,7.93
2022-10-30T22:21:49.703Z,8.20
2022-10-30T22:23:54.499Z,7.20
2022-10-30T22:26:04.778Z,7.67
2022-10-30T22:28:07.633Z,7.67
2022-10-30T22:30:10.977Z,7.20
2022-10-30T22:32:14.249Z,7.50
2022-10-30T22:34:16.799Z,6.88
2022-10-30T22:36:32.214Z,6.37
2022-10-30T22:38:35.482Z,5.17
2022-10-30T22:40:38.511Z,5.40
2022-10-30T22:42:41.117Z,6.30
2022-10-30T22:44:43.685Z,5.93
2022-10-30T22:46:46.506Z,6.00
2022-10-30T22:48:52.561Z,6.87
2022-10-30T22:51:10.590Z,6.27
2022-10-30T22:53:20.749Z,6.20
2022-10-30T22:55:23.277Z,7.07
2022-10-30T22:57:26.669Z,6.00
2022-10-30T22:59:29.198Z,6.67
2022-10-30T23:01:36.917Z,8.60
2022-10-30T23:03:41.679Z,10.30
2022-10-30T23:05:44.268Z,9.67
2022-10-30T23:07:47.588Z,9.50
2022-10-30T23:09:51.709Z,8.87
2022-10-30T23:11:54.650Z,8.60
2022-10-30T23:14:03.579Z,10.00
2022-10-30T23:16:09.731Z,9.20
2022-10-30T23:18:13.722Z,8.63
2022-10-30T23:20:19.690Z,8.83
2022-10-30T23:22:24.843Z,9.33
2022-10-30T23:24:27.734Z,8.77
2022-10-30T23:26:35.028Z,10.38
2022-10-30T23:28:41.697Z,8.87
2022-10-30T23:30:46.513Z,9.40
2022-10-30T23:33:00.139Z,8.37
2022-10-30T23:35:07.735Z,10.90
2022-10-30T23:37:10.995Z,9.37
2022-10-30T23:39:18.811Z,8.77
2022-10-30T23:41:26.166Z,9.87
2022-10-30T23:43:29.209Z,9.83
2022-10-30T23:45:35.586Z,9.33
2022-10-30T23:47:42.862Z,10.27
2022-10-30T23:49:47.216Z,10.02
2022-10-30T23:51:52.504Z,8.80
2022-10-30T23:53:55.304Z,9.17
2022-10-30T23:55:57.859Z,9.00
2022-10-30T23:58:00.807Z,11.10
